Time;durP1;ratioP1;P1;durP2;ratioP2;P2;SDS_P1;SDS_P2;PMS_P1;PMS_P2;Temp;Humidity;BMP_temperature;BMP_pressure;BME280_temperature;BME280_humidity;BME280_pressure;Samples;Min_cycle;Max_cycle;Signal;HPM_P1;HPM_P2
2021/12/23 00:00:16;;;;;;;12.27;3.77;;;-2.50;99.90;;;;;;5098185;28;20446;-58
2021/12/23 00:02:44;;;;;;;9.60;4.60;;;-2.50;99.90;;;;;;5098195;28;20544;-58
2021/12/23 00:05:12;;;;;;;13.93;2.90;;;-2.40;99.90;;;;;;5098712;28;20580;-58
2021/12/23 00:07:40;;;;;;;15.60;2.87;;;-2.40;99.90;;;;;;5097847;28;20457;-58
2021/12/23 00:10:09;;;;;;;7.90;3.50;;;-2.40;99.90;;;;;;5098205;28;20956;-57
2021/12/23 00:12:39;;;;;;;10.60;3.00;;;-2.50;99.90;;;;;;5098298;28;20458;-57
2021/12/23 00:15:16;;;;;;;19.50;6.17;;;-2.50;99.90;;;;;;5097242;28;20540;-57
2021/12/23 00:18:01;;;;;;;11.00;3.20;;;-2.60;99.90;;;;;;5097817;28;20453;-58
2021/12/23 00:23:28;;;;;;;12.10;3.97;;;-2.60;99.90;;;;;;5094827;28;20453;-58
2021/12/23 00:26:01;;;;;;;11.50;5.63;;;-2.40;99.90;;;;;;5094949;28;20541;-58
2021/12/23 00:28:28;;;;;;;14.10;3.00;;;-2.40;99.90;;;;;;5094673;28;20452;-59
2021/12/23 00:30:55;;;;;;;9.60;2.70;;;-2.40;99.90;;;;;;5094045;28;20444;-58
2021/12/23 00:33:24;;;;;;;8.83;3.00;;;-2.50;99.90;;;;;;5094578;28;20488;-58
2021/12/23 00:35:53;;;;;;;6.47;3.50;;;-2.40;99.90;;;;;;5095873;28;20438;-58
2021/12/23 00:38:25;;;;;;;14.87;5.33;;;-2.40;99.90;;;;;;5096005;28;20736;-58
2021/12/23 00:40:53;;;;;;;9.67;2.20;;;-2.40;99.90;;;;;;5096988;28;20888;-58
2021/12/23 00:43:20;;;;;;;11.47;4.20;;;-2.40;99.90;;;;;;5097872;28;20743;-58
2021/12/23 00:45:47;;;;;;;9.13;3.10;;;-2.50;99.90;;;;;;5097671;28;20513;-58
2021/12/23 00:48:14;;;;;;;11.40;4.43;;;-2.50;99.90;;;;;;5097558;28;20853;-58
2021/12/23 00:50:43;;;;;;;11.97;6.30;;;-2.50;99.90;;;;;;5097477;28;20908;-58
2021/12/23 00:53:10;;;;;;;15.93;6.10;;;-2.60;99.90;;;;;;5096551;28;20562;-58
2021/12/23 00:55:38;;;;;;;8.87;3.47;;;-2.60;99.90;;;;;;5095983;28;20541;-58
2021/12/23 00:58:05;;;;;;;8.00;2.60;;;-2.50;99.90;;;;;;5094554;28;20607;-56
2021/12/23 01:00:32;;;;;;;7.80;3.33;;;-2.40;99.90;;;;;;5095266;28;20529;-59
2021/12/23 01:03:00;;;;;;;14.07;5.17;;;-2.40;99.90;;;;;;5096149;28;20454;-58
2021/12/23 01:05:28;;;;;;;23.37;4.77;;;-2.30;99.90;;;;;;5097002;28;20534;-58
2021/12/23 01:07:57;;;;;;;7.70;2.30;;;-2.30;99.90;;;;;;5095432;28;20457;-58
2021/12/23 01:10:25;;;;;;;11.97;5.87;;;-2.40;99.90;;;;;;5095265;28;20441;-58
2021/12/23 01:12:58;;;;;;;17.03;4.37;;;-2.50;99.90;;;;;;5095149;28;20461;-58
2021/12/23 01:15:57;;;;;;;16.10;3.33;;;-2.50;99.90;;;;;;5095439;28;20452;-58
2021/12/23 01:18:24;;;;;;;14.43;4.67;;;-2.60;99.90;;;;;;5097063;28;20942;-58
2021/12/23 01:20:52;;;;;;;6.17;2.60;;;-2.50;99.90;;;;;;5096132;28;20494;-59
2021/12/23 01:23:23;;;;;;;11.47;3.37;;;-2.50;99.90;;;;;;5094683;28;20916;-58
2021/12/23 01:25:51;;;;;;;7.57;4.13;;;-2.50;99.90;;;;;;5094207;28;20484;-58
2021/12/23 01:28:18;;;;;;;9.30;3.80;;;-2.50;99.90;;;;;;5095525;28;20759;-58
2021/12/23 01:30:47;;;;;;;6.97;4.20;;;-2.60;99.90;;;;;;5094661;28;20441;-58
2021/12/23 01:33:15;;;;;;;9.37;3.10;;;-2.70;99.90;;;;;;5093914;28;20829;-57
2021/12/23 01:35:44;;;;;;;5.63;2.20;;;-2.70;99.90;;;;;;5093071;28;20441;-58
2021/12/23 01:38:12;;;;;;;7.00;2.50;;;-2.70;99.90;;;;;;5093878;28;20457;-57
2021/12/23 01:40:40;;;;;;;7.70;3.77;;;-2.80;99.90;;;;;;5093784;28;20528;-57
2021/12/23 01:43:07;;;;;;;9.37;1.70;;;-2.80;99.90;;;;;;5093035;28;20498;-58
2021/12/23 01:45:35;;;;;;;7.07;2.53;;;-2.80;99.90;;;;;;5092705;28;20480;-58
2021/12/23 01:48:03;;;;;;;6.73;1.53;;;-2.70;99.90;;;;;;5094932;28;20811;-58
2021/12/23 01:50:32;;;;;;;7.10;4.30;;;-2.70;99.90;;;;;;5095159;28;20489;-58
2021/12/23 01:53:00;;;;;;;3.50;1.67;;;-2.80;99.90;;;;;;5093413;28;20461;-56
2021/12/23 01:55:27;;;;;;;14.03;3.87;;;-2.80;99.90;;;;;;5093571;28;20532;-57
2021/12/23 01:57:57;;;;;;;9.80;4.23;;;-2.70;99.90;;;;;;5091911;28;21036;-54
2021/12/23 02:00:26;;;;;;;6.33;2.20;;;-2.60;99.90;;;;;;5092626;28;20438;-58
2021/12/23 02:02:54;;;;;;;7.90;2.40;;;-2.70;99.90;;;;;;5092430;28;20495;-58
2021/12/23 02:05:21;;;;;;;7.40;2.67;;;-2.70;99.90;;;;;;5093051;28;20568;-56
2021/12/23 02:07:49;;;;;;;6.87;2.10;;;-2.60;99.90;;;;;;5091959;28;20458;-58
2021/12/23 02:10:16;;;;;;;6.33;2.87;;;-2.60;99.90;;;;;;5093402;28;20537;-56
2021/12/23 02:12:45;;;;;;;8.70;1.93;;;-2.60;99.90;;;;;;5093007;28;20822;-56
2021/12/23 02:15:14;;;;;;;3.53;3.23;;;-2.60;99.90;;;;;;5092707;28;20477;-58
2021/12/23 02:17:41;;;;;;;10.00;2.90;;;-2.50;99.90;;;;;;5093195;28;20540;-57
2021/12/23 02:20:11;;;;;;;8.03;2.53;;;-2.50;99.90;;;;;;5093452;28;20540;-56
2021/12/23 02:22:42;;;;;;;7.13;2.70;;;-2.50;99.90;;;;;;5093507;28;20924;-58
2021/12/23 02:25:11;;;;;;;10.00;3.13;;;-2.50;99.90;;;;;;5092802;28;20485;-57
2021/12/23 02:27:38;;;;;;;6.80;0.80;;;-2.50;99.90;;;;;;5093554;28;20969;-55
2021/12/23 02:30:08;;;;;;;8.80;4.60;;;-2.50;99.90;;;;;;5095148;28;20524;-57
2021/12/23 02:32:36;;;;;;;5.80;2.97;;;-2.50;99.90;;;;;;5095414;28;20515;-58
2021/12/23 02:35:04;;;;;;;10.50;3.47;;;-2.50;99.90;;;;;;5093084;28;20445;-58
2021/12/23 02:37:32;;;;;;;9.50;2.40;;;-2.40;99.90;;;;;;5092210;28;20551;-56
2021/12/23 02:39:59;;;;;;;10.37;3.17;;;-2.40;99.90;;;;;;5093299;28;21018;-57
2021/12/23 02:42:26;;;;;;;7.83;2.57;;;-2.40;99.90;;;;;;5095262;28;20481;-58
2021/12/23 02:44:54;;;;;;;6.80;2.23;;;-2.40;99.90;;;;;;5094963;28;20489;-57
2021/12/23 02:47:22;;;;;;;11.00;4.67;;;-2.40;99.90;;;;;;5095177;28;20485;-57
2021/12/23 02:49:49;;;;;;;6.70;2.40;;;-2.40;99.90;;;;;;5095203;28;20523;-58
2021/12/23 02:52:16;;;;;;;4.90;2.93;;;-2.40;99.90;;;;;;5094342;28;20544;-58
2021/12/23 02:54:54;;;;;;;6.70;2.90;;;-2.40;99.90;;;;;;5095985;28;20445;-58
2021/12/23 02:57:21;;;;;;;10.70;3.83;;;-2.30;99.90;;;;;;5097522;28;20540;-58
2021/12/23 02:59:48;;;;;;;12.77;5.73;;;-2.20;99.90;;;;;;5097826;28;20520;-58
2021/12/23 03:02:15;;;;;;;14.30;2.90;;;-2.20;99.90;;;;;;5097531;28;20955;-57
2021/12/23 03:04:41;;;;;;;11.40;2.63;;;-2.30;99.90;;;;;;5096946;28;20441;-57
2021/12/23 03:07:08;;;;;;;8.20;3.00;;;-2.20;99.90;;;;;;5095241;28;20481;-57
2021/12/23 03:09:35;;;;;;;7.93;3.30;;;-2.20;99.90;;;;;;5096394;28;20837;-57
2021/12/23 03:12:05;;;;;;;6.90;2.60;;;-2.20;99.90;;;;;;5098033;28;20547;-56
2021/12/23 03:14:32;;;;;;;7.70;4.27;;;-2.20;99.90;;;;;;5097476;28;20500;-57
2021/12/23 03:16:59;;;;;;;10.13;3.50;;;-2.20;99.90;;;;;;5097669;28;20539;-58
2021/12/23 03:19:26;;;;;;;2.30;0.87;;;-2.20;99.90;;;;;;5098861;28;20481;-58
2021/12/23 03:21:53;;;;;;;10.80;3.13;;;-2.30;99.90;;;;;;5098713;28;20492;-57
2021/12/23 03:24:20;;;;;;;8.30;3.03;;;-2.30;99.90;;;;;;5098263;28;20441;-56
2021/12/23 03:26:47;;;;;;;7.80;2.03;;;-2.20;99.90;;;;;;5098016;28;20917;-58
2021/12/23 03:29:15;;;;;;;9.53;1.93;;;-2.20;99.90;;;;;;5098207;28;20528;-58
2021/12/23 03:31:42;;;;;;;6.07;4.00;;;-2.20;99.90;;;;;;5097298;28;20952;-58
2021/12/23 03:34:09;;;;;;;4.47;1.77;;;-2.20;99.90;;;;;;5096763;28;20552;-56
2021/12/23 03:36:37;;;;;;;15.07;2.97;;;-2.30;99.90;;;;;;5096778;28;20453;-57
2021/12/23 03:39:04;;;;;;;10.47;2.30;;;-2.30;99.90;;;;;;5097130;28;20919;-58
2021/12/23 03:41:31;;;;;;;5.33;2.13;;;-2.30;99.90;;;;;;5096523;28;20973;-57
2021/12/23 03:43:59;;;;;;;12.63;3.03;;;-2.30;99.90;;;;;;5098583;28;20541;-58
2021/12/23 03:46:27;;;;;;;12.03;3.60;;;-2.30;99.90;;;;;;5098453;28;20572;-57
2021/12/23 03:48:54;;;;;;;9.30;3.37;;;-2.20;99.90;;;;;;5098484;28;20826;-57
2021/12/23 03:51:21;;;;;;;9.93;2.67;;;-2.20;99.90;;;;;;5098328;28;20944;-56
2021/12/23 03:53:48;;;;;;;0.30;0.30;;;-2.20;99.90;;;;;;5098243;28;20819;-55
2021/12/23 03:56:18;;;;;;;7.87;1.90;;;-2.20;99.90;;;;;;5097930;28;20928;-57
2021/12/23 03:58:45;;;;;;;6.07;2.03;;;-2.10;99.90;;;;;;5097856;28;20481;-57
2021/12/23 04:01:13;;;;;;;6.43;2.50;;;-2.10;99.90;;;;;;5098071;28;20556;-56
2021/12/23 04:03:41;;;;;;;3.20;1.73;;;-2.10;99.90;;;;;;5098384;28;20534;-57
2021/12/23 04:06:08;;;;;;;12.33;2.20;;;-2.10;99.90;;;;;;5097185;28;20572;-56
2021/12/23 04:08:35;;;;;;;8.73;2.23;;;-2.10;99.90;;;;;;5098001;28;20536;-58
2021/12/23 04:11:02;;;;;;;7.30;1.27;;;-2.00;99.90;;;;;;5097091;28;20532;-58
2021/12/23 04:13:29;;;;;;;3.47;1.53;;;-2.00;99.90;;;;;;5095817;28;20536;-57
2021/12/23 04:15:56;;;;;;;8.53;2.20;;;-2.10;99.90;;;;;;5095962;28;20450;-58
2021/12/23 04:18:23;;;;;;;7.33;3.57;;;-2.00;99.90;;;;;;5097635;28;20532;-58
2021/12/23 04:20:54;;;;;;;3.30;1.30;;;-2.10;99.90;;;;;;5097076;28;20455;-58
2021/12/23 04:23:22;;;;;;;4.20;2.20;;;-2.00;99.90;;;;;;5095982;28;20445;-58
2021/12/23 04:25:49;;;;;;;4.33;2.13;;;-2.00;99.90;;;;;;5095850;28;20568;-57
2021/12/23 04:28:16;;;;;;;3.43;1.10;;;-2.00;99.90;;;;;;5096618;28;20560;-56
2021/12/23 04:30:43;;;;;;;4.90;2.10;;;-1.90;99.90;;;;;;5096479;28;20536;-58
2021/12/23 04:33:13;;;;;;;7.77;1.73;;;-2.00;99.90;;;;;;5096710;28;20556;-56
2021/12/23 04:35:40;;;;;;;11.57;1.90;;;-1.90;99.90;;;;;;5095916;28;20498;-57
2021/12/23 04:38:09;;;;;;;7.57;2.40;;;-1.90;99.90;;;;;;5096804;28;20540;-57
2021/12/23 04:40:37;;;;;;;5.20;2.20;;;-1.90;99.90;;;;;;5097214;28;20441;-58
2021/12/23 04:43:04;;;;;;;5.93;2.77;;;-1.90;99.90;;;;;;5096902;28;21060;-58
2021/12/23 04:45:31;;;;;;;9.57;1.30;;;-2.00;99.90;;;;;;5096452;28;20540;-59
2021/12/23 04:47:59;;;;;;;3.07;1.70;;;-2.00;99.90;;;;;;5095931;28;20522;-58
2021/12/23 04:50:26;;;;;;;9.43;2.83;;;-2.00;99.90;;;;;;5095260;28;21296;-58
2021/12/23 04:52:53;;;;;;;7.03;2.93;;;-1.80;99.90;;;;;;5095666;28;20980;-57
2021/12/23 04:55:21;;;;;;;6.23;1.83;;;-1.80;99.90;;;;;;5095369;28;20826;-58
2021/12/23 04:57:48;;;;;;;4.83;1.53;;;-1.60;99.90;;;;;;5095406;28;20539;-58
2021/12/23 05:00:18;;;;;;;5.90;2.70;;;-1.60;99.90;;;;;;5095853;28;20964;-58
2021/12/23 05:02:45;;;;;;;7.93;2.90;;;-1.60;99.90;;;;;;5095096;28;20515;-58
2021/12/23 05:05:15;;;;;;;5.30;1.67;;;-1.60;99.90;;;;;;5096166;28;20481;-58
2021/12/23 05:07:42;;;;;;;9.03;1.93;;;-1.70;99.90;;;;;;5096505;28;20481;-58
2021/12/23 05:10:10;;;;;;;7.80;2.57;;;-1.70;99.90;;;;;;5095767;28;20941;-57
2021/12/23 05:12:43;;;;;;;9.53;1.37;;;-1.70;99.90;;;;;;5096399;28;20536;-57
2021/12/23 05:15:11;;;;;;;5.03;1.40;;;-1.70;99.90;;;;;;5095300;28;20548;-57
2021/12/23 05:17:38;;;;;;;5.53;1.90;;;-1.60;99.90;;;;;;5093238;28;20449;-58
2021/12/23 05:20:06;;;;;;;6.57;2.30;;;-1.60;99.90;;;;;;5093290;28;20449;-58
2021/12/23 05:22:33;;;;;;;5.20;3.20;;;-1.60;99.90;;;;;;5094054;28;20544;-58
2021/12/23 05:25:00;;;;;;;7.77;2.53;;;-1.60;99.90;;;;;;5095059;28;20776;-57
2021/12/23 05:27:27;;;;;;;5.90;2.13;;;-1.50;99.90;;;;;;5095924;28;20990;-59
2021/12/23 05:29:55;;;;;;;6.80;1.53;;;-1.50;99.90;;;;;;5095861;28;20890;-52
2021/12/23 05:32:22;;;;;;;7.53;2.73;;;-1.20;99.90;;;;;;5096213;28;20503;-55
2021/12/23 05:34:49;;;;;;;7.73;2.17;;;-1.20;99.90;;;;;;5095227;28;20536;-53
2021/12/23 05:37:16;;;;;;;6.87;1.87;;;-1.30;99.90;;;;;;5096009;28;20548;-53
2021/12/23 05:39:43;;;;;;;3.30;1.60;;;-1.30;99.90;;;;;;5096902;28;20470;-56
2021/12/23 05:42:10;;;;;;;9.80;3.87;;;-1.40;99.90;;;;;;5096886;28;20749;-54
2021/12/23 05:44:37;;;;;;;9.90;3.43;;;-1.50;99.90;;;;;;5096617;28;20894;-53
2021/12/23 05:47:06;;;;;;;8.53;2.03;;;-1.50;99.90;;;;;;5096478;28;20575;-54
2021/12/23 05:49:33;;;;;;;6.80;1.80;;;-1.50;99.90;;;;;;5095944;28;20445;-56
2021/12/23 05:52:00;;;;;;;4.50;1.70;;;-1.60;99.90;;;;;;5095133;28;20453;-56
2021/12/23 05:54:27;;;;;;;7.50;1.37;;;-1.60;99.90;;;;;;5094661;28;20536;-54
2021/12/23 05:56:57;;;;;;;6.63;2.80;;;-1.60;99.90;;;;;;5094550;28;20506;-56
2021/12/23 05:59:24;;;;;;;6.50;2.60;;;-1.60;99.90;;;;;;5094402;28;20477;-55
2021/12/23 06:01:51;;;;;;;8.23;2.50;;;-1.50;99.90;;;;;;5096335;28;20485;-54
2021/12/23 06:04:19;;;;;;;9.33;3.57;;;-1.50;99.90;;;;;;5095756;28;20939;-56
2021/12/23 06:06:46;;;;;;;9.30;4.93;;;-1.40;99.90;;;;;;5095126;28;20939;-52
2021/12/23 06:09:13;;;;;;;8.33;2.10;;;-1.30;99.90;;;;;;5095039;28;20537;-51
2021/12/23 06:11:40;;;;;;;17.40;4.53;;;-1.30;99.90;;;;;;5093902;28;20555;-54
2021/12/23 06:14:07;;;;;;;7.10;2.07;;;-1.30;99.90;;;;;;5094649;28;20940;-54
2021/12/23 06:16:34;;;;;;;9.67;3.40;;;-1.10;99.90;;;;;;5094262;28;20478;-54
2021/12/23 06:19:01;;;;;;;6.87;3.40;;;-1.00;99.90;;;;;;5093867;28;20532;-51
2021/12/23 06:21:31;;;;;;;9.10;3.07;;;-0.90;99.90;;;;;;5091224;28;20552;-54
2021/12/23 06:23:59;;;;;;;9.33;4.17;;;-0.70;99.90;;;;;;5089321;28;20880;-53
2021/12/23 06:26:26;;;;;;;5.67;2.07;;;-0.20;99.90;;;;;;5093111;28;20862;-50
2021/12/23 06:28:53;;;;;;;3.90;2.13;;;0.30;99.90;;;;;;5096231;28;20529;-53
2021/12/23 06:31:20;;;;;;;4.30;1.70;;;0.20;99.90;;;;;;5099101;28;20543;-55
2021/12/23 06:33:47;;;;;;;6.90;2.47;;;-0.20;99.90;;;;;;5098812;28;20524;-51
2021/12/23 06:36:14;;;;;;;10.10;4.13;;;-0.30;99.90;;;;;;5102043;28;20488;-53
2021/12/23 06:38:43;;;;;;;11.20;2.90;;;-0.20;99.90;;;;;;5101588;28;20446;-54
2021/12/23 06:41:11;;;;;;;8.00;2.13;;;-0.40;99.90;;;;;;5101167;28;20476;-53
2021/12/23 06:43:38;;;;;;;4.17;1.90;;;-0.40;99.90;;;;;;5100130;28;20445;-51
2021/12/23 06:46:05;;;;;;;5.53;2.03;;;-0.40;99.90;;;;;;5099614;28;20569;-53
2021/12/23 06:48:33;;;;;;;6.47;1.60;;;-0.40;99.90;;;;;;5100339;28;20563;-50
2021/12/23 06:51:00;;;;;;;10.20;3.67;;;-0.40;99.90;;;;;;5099712;28;20445;-51
2021/12/23 06:53:28;;;;;;;7.63;3.20;;;-0.30;99.90;;;;;;5099988;28;20472;-53
2021/12/23 06:55:56;;;;;;;5.87;2.87;;;-0.20;99.90;;;;;;5099659;28;20468;-53
2021/12/23 06:58:25;;;;;;;7.37;3.43;;;-0.10;99.90;;;;;;5099346;28;20526;-52
2021/12/23 07:00:52;;;;;;;6.63;3.77;;;-0.10;99.90;;;;;;5100648;28;20492;-52
2021/12/23 07:03:24;;;;;;;10.10;2.70;;;-0.20;99.90;;;;;;5098224;28;20450;-51
2021/12/23 07:05:57;;;;;;;8.63;4.17;;;0.20;99.90;;;;;;5099902;28;20456;-52
2021/12/23 07:08:28;;;;;;;13.95;4.78;;;0.60;99.90;;;;;;5100285;28;20463;-52
2021/12/23 07:10:56;;;;;;;10.90;3.87;;;1.00;99.90;;;;;;5099955;28;20294;-55
2021/12/23 07:13:24;;;;;;;11.53;4.73;;;0.60;99.90;;;;;;5098648;28;20540;-55
2021/12/23 07:15:53;;;;;;;5.30;2.77;;;0.20;99.90;;;;;;5098044;28;20449;-60
2021/12/23 07:18:20;;;;;;;8.00;2.23;;;-0.20;99.90;;;;;;5099077;28;20441;-49
2021/12/23 07:20:46;;;;;;;4.93;2.50;;;-0.40;99.90;;;;;;5098708;28;20837;-49
2021/12/23 07:23:13;;;;;;;7.80;1.83;;;-0.50;99.90;;;;;;5099993;28;20952;-48
2021/12/23 07:25:41;;;;;;;5.87;2.37;;;-0.30;99.90;;;;;;5099305;28;20496;-48
2021/12/23 07:28:09;;;;;;;10.87;2.53;;;-0.40;99.90;;;;;;5100627;28;20477;-49
2021/12/23 07:30:36;;;;;;;5.17;2.60;;;-0.50;99.90;;;;;;5098835;28;21213;-49
2021/12/23 07:33:03;;;;;;;5.67;2.50;;;-0.60;99.90;;;;;;5100776;28;20536;-49
2021/12/23 07:35:31;;;;;;;4.10;1.00;;;-0.50;99.90;;;;;;5097855;28;20959;-50
2021/12/23 07:38:00;;;;;;;6.77;2.90;;;-0.50;99.90;;;;;;5092882;28;20441;-48
2021/12/23 07:40:28;;;;;;;3.90;1.60;;;-0.50;99.90;;;;;;5095323;28;20819;-50
2021/12/23 07:43:09;;;;;;;8.40;3.27;;;-0.50;99.90;;;;;;5095546;28;20554;-51
2021/12/23 07:45:39;;;;;;;7.47;3.40;;;-0.20;99.90;;;;;;5094561;28;20838;-47
2021/12/23 07:48:06;;;;;;;11.27;2.00;;;0.10;99.90;;;;;;5095924;28;20296;-51
2021/12/23 07:50:33;;;;;;;8.00;3.00;;;0.00;99.90;;;;;;5096907;28;20517;-49
2021/12/23 07:53:00;;;;;;;11.73;3.00;;;0.30;99.90;;;;;;5096141;28;20542;-55
2021/12/23 07:55:28;;;;;;;9.53;3.63;;;0.30;99.90;;;;;;5094884;28;20528;-56
2021/12/23 07:57:55;;;;;;;6.90;2.40;;;0.80;99.90;;;;;;5095375;28;20501;-56
2021/12/23 08:00:22;;;;;;;7.27;2.70;;;1.00;99.90;;;;;;5094501;28;20529;-54
2021/12/23 08:02:51;;;;;;;6.53;2.73;;;1.20;99.90;;;;;;5091545;28;20583;-56
2021/12/23 08:05:17;;;;;;;8.77;3.30;;;1.00;99.90;;;;;;5092954;28;20847;-55
2021/12/23 08:07:44;;;;;;;7.70;2.53;;;0.80;99.90;;;;;;5093757;28;20576;-54
2021/12/23 08:10:12;;;;;;;8.70;2.70;;;0.50;99.90;;;;;;5092595;28;20440;-55
2021/12/23 08:12:39;;;;;;;7.47;3.73;;;0.40;99.90;;;;;;5091629;28;20488;-55
2021/12/23 08:15:07;;;;;;;4.77;2.70;;;0.20;99.90;;;;;;5091806;28;20485;-53
2021/12/23 08:17:35;;;;;;;10.90;3.10;;;0.20;99.90;;;;;;5091464;28;20888;-52
2021/12/23 08:20:03;;;;;;;5.63;2.00;;;0.30;99.90;;;;;;5092785;28;20290;-54
2021/12/23 08:22:31;;;;;;;5.50;2.87;;;0.40;99.90;;;;;;5090591;28;20549;-53
2021/12/23 08:24:58;;;;;;;7.27;2.30;;;0.50;99.90;;;;;;5091158;28;20449;-52
2021/12/23 08:27:27;;;;;;;7.80;1.80;;;0.50;99.90;;;;;;5092557;28;20889;-57
2021/12/23 08:29:57;;;;;;;8.87;4.53;;;0.50;99.90;;;;;;5093269;28;20464;-54
2021/12/23 08:32:24;;;;;;;7.87;3.17;;;0.50;99.90;;;;;;5093330;28;20884;-51
2021/12/23 08:34:55;;;;;;;5.60;1.90;;;0.50;99.90;;;;;;5092616;28;20819;-55
2021/12/23 08:37:24;;;;;;;4.00;1.10;;;0.50;99.90;;;;;;5090470;28;20823;-50
2021/12/23 08:39:53;;;;;;;5.70;2.10;;;0.50;99.90;;;;;;5092069;28;20499;-53
2021/12/23 08:42:24;;;;;;;8.47;1.43;;;0.60;99.90;;;;;;5089516;28;20566;-54
2021/12/23 08:44:51;;;;;;;4.13;1.40;;;0.60;99.90;;;;;;5090312;28;20540;-55
2021/12/23 08:47:19;;;;;;;9.17;3.30;;;0.50;99.90;;;;;;5092526;28;21107;-51
2021/12/23 08:49:53;;;;;;;6.67;2.33;;;0.50;99.90;;;;;;5093713;28;20928;-54
2021/12/23 08:52:21;;;;;;;4.87;1.90;;;0.50;99.90;;;;;;5092248;28;20526;-54
2021/12/23 08:54:50;;;;;;;7.20;2.53;;;0.50;99.90;;;;;;5093944;28;20917;-57
2021/12/23 08:57:17;;;;;;;6.43;2.67;;;0.50;99.90;;;;;;5093415;28;20757;-54
2021/12/23 08:59:45;;;;;;;5.23;2.03;;;0.70;99.90;;;;;;5061477;28;20458;-55
2021/12/23 09:02:13;;;;;;;6.77;2.57;;;0.70;99.90;;;;;;5072943;28;20505;-54
2021/12/23 09:04:41;;;;;;;4.47;2.33;;;0.70;99.90;;;;;;5073261;28;20496;-49
2021/12/23 09:07:10;;;;;;;5.37;1.60;;;0.70;99.90;;;;;;5062504;28;20958;-52
2021/12/23 09:09:37;;;;;;;4.67;1.47;;;0.70;99.90;;;;;;5052071;28;20821;-54
2021/12/23 09:12:10;;;;;;;8.73;3.03;;;0.80;99.90;;;;;;5052276;28;20546;-52
2021/12/23 09:14:37;;;;;;;11.85;5.00;;;0.80;99.90;;;;;;5050968;28;20862;-55
2021/12/23 09:17:04;;;;;;;10.33;4.47;;;0.90;99.90;;;;;;5059100;28;20790;-53
2021/12/23 09:19:34;;;;;;;11.53;3.67;;;1.10;99.90;;;;;;5078121;28;20632;-55
2021/12/23 09:22:01;;;;;;;3.03;1.40;;;1.20;99.90;;;;;;5087182;28;20528;-51
2021/12/23 09:24:31;;;;;;;8.70;2.33;;;1.30;99.90;;;;;;5065616;28;20955;-56
2021/12/23 09:27:04;;;;;;;5.83;2.60;;;1.30;99.90;;;;;;5062004;28;20841;-54
2021/12/23 09:35:26;;;;;;;6.43;2.03;;;1.70;99.90;;;;;;4990767;28;20438;-54
2021/12/23 09:37:54;;;;;;;16.90;2.37;;;1.80;99.90;;;;;;4991397;28;20454;-51
2021/12/23 09:40:23;;;;;;;5.70;2.90;;;1.90;99.90;;;;;;5028337;28;20451;-51
2021/12/23 09:42:55;;;;;;;4.30;1.87;;;2.00;99.90;;;;;;5073033;28;20523;-52
2021/12/23 09:45:24;;;;;;;7.50;1.73;;;2.00;99.90;;;;;;5073619;28;20499;-53
2021/12/23 09:47:53;;;;;;;3.27;1.43;;;2.10;99.90;;;;;;5073423;28;20585;-53
2021/12/23 09:50:24;;;;;;;8.00;2.77;;;2.20;99.90;;;;;;5070972;28;20488;-51
2021/12/23 09:52:53;;;;;;;7.00;2.00;;;2.20;99.90;;;;;;5071263;28;20569;-52
2021/12/23 09:55:23;;;;;;;8.97;1.83;;;2.40;99.90;;;;;;5073511;28;20508;-53
2021/12/23 09:57:51;;;;;;;6.40;2.17;;;2.50;99.90;;;;;;5074835;28;20493;-56
2021/12/23 10:00:25;;;;;;;4.00;1.25;;;2.70;99.90;;;;;;5090638;28;20966;-53
2021/12/23 10:02:53;;;;;;;5.73;2.07;;;2.80;99.90;;;;;;5090710;28;20817;-62
2021/12/23 10:05:23;;;;;;;8.13;1.80;;;2.90;99.90;;;;;;5092730;28;20454;-63
2021/12/23 10:07:50;;;;;;;3.87;1.63;;;3.00;99.90;;;;;;5092775;28;20576;-63
2021/12/23 10:10:23;;;;;;;5.80;1.70;;;3.10;99.90;;;;;;5093764;28;20445;-57
2021/12/23 10:13:15;;;;;;;3.80;1.60;;;3.20;99.90;;;;;;5094771;28;20456;-59
2021/12/23 10:32:51;;;;;;;3.13;1.10;;;3.80;99.90;;;;;;5079175;28;20532;-60
2021/12/23 10:38:07;;;;;;;6.65;2.63;;;3.90;99.90;;;;;;5088266;28;20423;-62
2021/12/23 10:40:48;;;;;;;3.73;1.10;;;4.00;99.90;;;;;;5088827;28;20196;-55
2021/12/23 10:43:22;;;;;;;5.40;1.10;;;4.10;99.90;;;;;;5097568;28;20453;-53
2021/12/23 10:45:55;;;;;;;3.23;1.37;;;4.10;99.90;;;;;;5093719;28;20990;-52
2021/12/23 10:48:30;;;;;;;6.00;1.60;;;4.30;99.90;;;;;;5092322;28;20489;-55
2021/12/23 10:51:02;;;;;;;5.10;1.20;;;4.40;99.90;;;;;;5091965;28;20419;-56
2021/12/23 10:53:45;;;;;;;2.23;1.13;;;4.50;99.90;;;;;;5091111;28;20900;-56
2021/12/23 10:59:10;;;;;;;2.63;0.90;;;4.80;99.90;;;;;;5089123;28;20452;-54
2021/12/23 11:02:03;;;;;;;2.30;0.97;;;4.90;99.90;;;;;;5090146;28;20454;-55
2021/12/23 11:04:37;;;;;;;2.70;1.30;;;5.00;99.90;;;;;;5084481;28;20453;-56
2021/12/23 11:07:19;;;;;;;4.72;1.20;;;5.10;99.90;;;;;;5082497;28;20518;-56
2021/12/23 11:10:16;;;;;;;4.37;1.00;;;5.20;99.90;;;;;;5083823;28;20216;-56
2021/12/23 11:27:49;;;;;;;2.53;1.20;;;5.60;99.90;;;;;;5096416;28;20534;-57
2021/12/23 11:39:08;;;;;;;1.60;0.90;;;5.90;99.90;;;;;;5095055;28;20428;-56
2021/12/23 11:41:39;;;;;;;2.73;0.80;;;6.00;99.90;;;;;;5095558;28;20463;-57
2021/12/23 11:44:15;;;;;;;2.70;0.90;;;6.10;99.90;;;;;;5095401;28;20449;-56
2021/12/23 11:46:46;;;;;;;2.00;1.03;;;6.20;99.90;;;;;;5094653;28;20876;-57
2021/12/23 11:49:17;;;;;;;1.60;0.77;;;6.30;99.90;;;;;;5094443;28;20576;-57
2021/12/23 11:51:53;;;;;;;2.53;0.80;;;6.40;99.90;;;;;;5094172;28;20597;-56
2021/12/23 11:54:29;;;;;;;1.87;0.80;;;6.40;99.90;;;;;;5092463;28;20449;-57
2021/12/23 11:57:03;;;;;;;1.40;0.70;;;6.50;99.90;;;;;;5093679;28;20557;-57
2021/12/23 11:59:32;;;;;;;1.57;0.90;;;6.50;99.90;;;;;;5091711;28;20469;-55
2021/12/23 12:01:59;;;;;;;2.43;1.00;;;6.60;99.90;;;;;;5094792;28;20457;-55
2021/12/23 12:04:32;;;;;;;2.87;0.90;;;6.80;99.90;;;;;;5094258;28;20967;-55
2021/12/23 12:06:59;;;;;;;2.33;0.77;;;6.70;99.90;;;;;;5093569;28;20615;-55
2021/12/23 12:09:30;;;;;;;1.20;0.70;;;6.80;99.90;;;;;;5093948;28;21163;-54
2021/12/23 12:12:08;;;;;;;3.67;1.60;;;6.90;99.90;;;;;;5095010;28;20461;-56
2021/12/23 12:14:43;;;;;;;1.43;0.93;;;6.90;99.90;;;;;;5095698;28;20457;-57
2021/12/23 12:17:35;;;;;;;1.90;1.03;;;7.00;99.90;;;;;;5095411;28;20499;-56
2021/12/23 12:20:09;;;;;;;1.90;1.00;;;7.10;99.90;;;;;;5094267;28;20503;-56
2021/12/23 12:22:51;;;;;;;1.60;0.70;;;7.10;99.90;;;;;;5094518;28;20543;-56
2021/12/23 12:25:56;;;;;;;1.40;0.90;;;7.10;99.90;;;;;;5087695;28;20482;-55
2021/12/23 12:28:32;;;;;;;1.33;0.70;;;7.20;99.90;;;;;;5088835;28;20526;-56
2021/12/23 12:31:05;;;;;;;1.63;0.80;;;7.20;99.90;;;;;;5095840;28;20502;-56
2021/12/23 12:33:42;;;;;;;1.10;0.60;;;7.20;99.90;;;;;;5093855;28;20438;-56
2021/12/23 12:36:12;;;;;;;1.23;0.70;;;7.30;99.90;;;;;;5092791;28;20449;-56
2021/12/23 12:38:42;;;;;;;1.13;0.60;;;7.40;99.90;;;;;;5093141;28;20448;-56
2021/12/23 12:41:16;;;;;;;1.10;0.53;;;7.40;99.90;;;;;;5094539;28;20450;-56
2021/12/23 12:43:58;;;;;;;2.27;0.60;;;7.40;99.90;;;;;;5093439;28;20452;-56
2021/12/23 12:46:58;;;;;;;2.23;0.90;;;7.50;99.90;;;;;;5087454;28;20457;-56
2021/12/23 12:49:30;;;;;;;1.10;0.60;;;7.40;99.90;;;;;;5090158;28;20488;-56
2021/12/23 12:52:12;;;;;;;1.03;0.70;;;7.40;99.90;;;;;;5092976;28;20961;-56
2021/12/23 12:54:59;;;;;;;1.10;0.60;;;7.40;99.90;;;;;;5092327;28;20536;-55
2021/12/23 12:57:34;;;;;;;1.23;0.60;;;7.30;99.90;;;;;;5093209;28;20506;-58
2021/12/23 13:00:17;;;;;;;1.90;0.80;;;7.40;99.90;;;;;;5095149;28;20446;-57
2021/12/23 13:02:56;;;;;;;2.57;0.80;;;7.40;99.90;;;;;;5092517;28;20932;-57
2021/12/23 13:05:33;;;;;;;1.43;0.70;;;7.40;99.90;;;;;;5089078;28;20509;-56
2021/12/23 13:08:05;;;;;;;1.80;0.87;;;7.40;99.90;;;;;;5090652;28;20548;-56
2021/12/23 13:10:34;;;;;;;1.13;0.60;;;7.30;99.90;;;;;;5093222;28;20448;-56
2021/12/23 13:13:06;;;;;;;1.20;0.63;;;7.40;99.90;;;;;;5094383;28;20454;-56
2021/12/23 13:15:39;;;;;;;3.90;1.43;;;7.40;99.90;;;;;;5093377;28;20491;-55
2021/12/23 13:18:09;;;;;;;1.43;0.90;;;7.30;99.90;;;;;;5093300;28;20543;-55
2021/12/23 13:20:47;;;;;;;1.40;1.07;;;7.30;99.90;;;;;;5093941;28;20651;-56
2021/12/23 13:23:19;;;;;;;4.30;1.77;;;7.30;99.90;;;;;;5092496;28;20893;-55
2021/12/23 13:25:53;;;;;;;4.23;1.80;;;7.30;99.90;;;;;;5093019;28;20860;-53
2021/12/23 13:28:28;;;;;;;1.80;0.80;;;7.30;99.90;;;;;;5091645;28;20450;-54
2021/12/23 13:30:56;;;;;;;2.20;0.70;;;7.20;99.90;;;;;;5086833;28;20487;-52
2021/12/23 13:33:23;;;;;;;1.73;0.80;;;7.20;99.90;;;;;;5079800;28;20451;-53
2021/12/23 13:35:51;;;;;;;1.53;0.90;;;7.20;99.90;;;;;;5082527;28;20532;-52
2021/12/23 13:38:40;;;;;;;1.83;0.60;;;7.10;99.90;;;;;;5083001;28;20909;-53
2021/12/23 13:41:36;;;;;;;4.40;0.80;;;7.10;99.90;;;;;;5093349;28;20456;-50
2021/12/23 13:44:24;;;;;;;4.23;1.10;;;7.10;99.90;;;;;;5094063;28;20450;-53
2021/12/23 13:47:03;;;;;;;1.40;0.70;;;7.00;99.90;;;;;;5093689;28;20768;-53
2021/12/23 13:49:36;;;;;;;1.60;0.60;;;7.00;99.90;;;;;;5094481;28;20513;-55
2021/12/23 13:52:06;;;;;;;1.80;0.70;;;7.00;99.90;;;;;;5094564;28;20908;-53
2021/12/23 13:54:35;;;;;;;1.83;0.70;;;7.00;99.90;;;;;;5094938;28;20532;-54
2021/12/23 13:57:13;;;;;;;2.20;0.70;;;7.00;99.90;;;;;;5092323;28;20454;-53
2021/12/23 13:59:41;;;;;;;1.57;0.70;;;7.00;99.90;;;;;;5092741;28;20465;-55